(°C)
17°
20°
22°
24°
25°
26°
27°
(°C)
16°
19°
21°
23°
24°
24°
25°
Z
JZ
J
JV
JZ
JJV
J
(km/h)
6-12
5-16
5-15
6-14
6-23
15-26
14-25
(mm)
0
0
0
0
1.1
0
0
(%)
0
4
0
18
43
31
36

Výška Slnka nad obzorom

/ 24.4°
sun-icon
UV 4
05:27
20:54
Ubúdajúci kosáčik (279°)
02:53
13:13

Správy METAR pre lokalitu Innsbruck (LOWI)

Čas Podmienky Teplota/
Rosný bod
Vietor Viditeľnosť Počasie Oblaky Tlak Zmeniť Nespracované
VFR 15°C / 14°C 280º 4kt >10km - Few Clouds 1000ft 1010 No Significant change LOWI 230550Z 28004KT 9999 FEW010 15/14 Q1010 NOSIG
VFR 15°C / 13°C 270º 3kt >10km - Few Clouds 1000ft 1010 No Significant change LOWI 230520Z 27003KT 9999 FEW010 15/13 Q1010 NOSIG
VFR 14°C / 13°C 270º variable 240º to 320º 3kt >10km - Few Clouds 1000ft 1010 No Significant change LOWI 230450Z 27003KT 240V320 9999 FEW010 14/13 Q1010 NOSIG
VFR 14°C / 13°C 250º variable 150º to 280º 3kt >10km - Few Clouds 1000ft 1011 No Significant change LOWI 230420Z 25003KT 150V280 9999 FEW010 14/13 Q1011 NOSIG
VFR 14°C / 13°C variable 2kt >10km - Few Clouds 1000ft 1011 No Significant change LOWI 230350Z VRB02KT 9999 FEW010 14/13 Q1011 NOSIG
VFR 14°C / 13°C variable 2kt >10km - Few Clouds 9000ft 1011 - LOWI 230320Z AUTO VRB02KT 9999 FEW090 14/13 Q1011
VFR 14°C / 13°C variable 2kt >10km - Few Clouds 12000ft 1011 - LOWI 230250Z AUTO VRB02KT 9999 FEW120 14/13 Q1011
VFR 14°C / 13°C 190º variable 160º to 240º 3kt >10km - Scattered Clouds 12000ft 1012 - LOWI 230220Z AUTO 19003KT 160V240 9999 SCT120 14/13 Q1012
VFR 15°C / 14°C 290º 3kt >10km - Few Clouds 9000ft
Broken Clouds 12000ft
1012 - LOWI 230150Z AUTO 29003KT 9999 FEW090 BKN120 15/14 Q1012
VFR 15°C / 14°C 260º 3kt >10km - Scattered Clouds 10000ft
Broken Clouds 12000ft
1012 - LOWI 230120Z AUTO 26003KT 9999 SCT100 BKN120 15/14 Q1012
VFR 14°C / 13°C 200º variable 170º to 230º 3kt >10km - Few Clouds 11000ft
Broken Clouds 12000ft
1012 - LOWI 230050Z AUTO 20003KT 170V230 9999 FEW110 BKN120 14/13 Q1012
VFR 15°C / 14°C 320º variable 290º to 350º 4kt >10km - Few Clouds 500ft
Broken Clouds 11000ft
1012 - LOWI 230020Z AUTO 32004KT 290V350 9999 FEW005 BKN110 15/14 Q1012
VFR 14°C / 13°C variable 2kt >10km - Broken Clouds 11000ft 1013 - LOWI 222350Z AUTO VRB02KT 9999 BKN110 14/13 Q1013
VFR 15°C / 14°C 250º variable 200º to 300º 3kt >10km - Clear 1013 - LOWI 222320Z AUTO 25003KT 200V300 9999 NSC 15/14 Q1013
VFR 15°C / 14°C 360º variable 260º to 030º 3kt >10km - Clear 1013 - LOWI 222250Z AUTO 36003KT 260V030 9999 NCD 15/14 Q1013
VFR 15°C / 14°C 220º variable 160º to 270º 4kt >10km - Clear 1013 - LOWI 222220Z AUTO 22004KT 160V270 9999 NCD 15/14 Q1013
VFR 16°C / 15°C 290º variable 260º to 330º 4kt >10km - Clear 1013 - LOWI 222150Z AUTO 29004KT 260V330 9999 NSC 16/15 Q1013
VFR 17°C / 15°C 280º 3kt >10km - Few Clouds 12000ft 1014 - LOWI 222120Z AUTO 28003KT 9999 FEW120 17/15 Q1014
VFR 17°C / 14°C variable 4kt >10km - Few Clouds 7000ft
Scattered Clouds 8000ft
Broken Clouds 12000ft
1014 No Significant change LOWI 222050Z VRB04KT 9999 FEW070 SCT080 BKN120 17/14 Q1014 NOSIG
VFR 17°C / 15°C variable 2kt >10km - Few Clouds 7000ft
Few Clouds 7000ft
Scattered Clouds 8000ft
Broken Clouds 12000ft
1014 No Significant change LOWI 222020Z VRB02KT 9999 FEW070 FEW070CB SCT080 BKN120 17/15 Q1014 NOSIG
VFR 18°C / 14°C variable 4kt >10km - Few Clouds 7000ft
Few Clouds 7000ft
Scattered Clouds 8000ft
Broken Clouds 12000ft
1014 No Significant change LOWI 221950Z VRB04KT 9999 FEW070 FEW070CB SCT080 BKN120 18/14 Q1014 NOSIG
VFR 18°C / 14°C 70º variable 010º to 140º 5kt >10km - Few Clouds 7000ft
Few Clouds 7000ft
Scattered Clouds 8000ft
Broken Clouds 12000ft
1013 No Significant change LOWI 221920Z 07005KT 010V140 9999 FEW070 FEW070CB SCT080 BKN120 18/14 Q1013 NOSIG
VFR 18°C / 16°C 20º variable 350º to 070º 4kt >10km - Few Clouds 7000ft
Few Clouds 7000ft
Scattered Clouds 8000ft
Broken Clouds 12000ft
1013 No Significant change LOWI 221850Z 02004KT 350V070 9999 FEW070 FEW070CB SCT080 BKN120 18/16 Q1013 NOSIG
VFR 18°C / 17°C 250º variable 110º to 280º 5kt >10km - Few Clouds 7000ft
Few Clouds 7000ft
Scattered Clouds 8000ft
Broken Clouds 12000ft
1013 No Significant change LOWI 221820Z 25005KT 110V280 9999 FEW070 FEW070CB SCT080 BKN120 18/17 Q1013 NOSIG

VFR

15°C / 14°C

[Viac]
Vietor 280º 4kt
Viditeľnosť >10km
Počasie -
Oblaky Few Clouds 1000ft
Tlak 1010
Zmeniť No Significant change
Nespracované LOWI 230550Z 28004KT 9999 FEW010 15/14 Q1010 NOSIG

VFR

15°C / 13°C

[Viac]
Vietor 270º 3kt
Viditeľnosť >10km
Počasie -
Oblaky Few Clouds 1000ft
Tlak 1010
Zmeniť No Significant change
Nespracované LOWI 230520Z 27003KT 9999 FEW010 15/13 Q1010 NOSIG

VFR

14°C / 13°C

[Viac]
Vietor 270º variable 240º to 320º 3kt
Viditeľnosť >10km
Počasie -
Oblaky Few Clouds 1000ft
Tlak 1010
Zmeniť No Significant change
Nespracované LOWI 230450Z 27003KT 240V320 9999 FEW010 14/13 Q1010 NOSIG

VFR

14°C / 13°C

[Viac]
Vietor 250º variable 150º to 280º 3kt
Viditeľnosť >10km
Počasie -
Oblaky Few Clouds 1000ft
Tlak 1011
Zmeniť No Significant change
Nespracované LOWI 230420Z 25003KT 150V280 9999 FEW010 14/13 Q1011 NOSIG

VFR

14°C / 13°C

[Viac]
Vietor variable 2kt
Viditeľnosť >10km
Počasie -
Oblaky Few Clouds 1000ft
Tlak 1011
Zmeniť No Significant change
Nespracované LOWI 230350Z VRB02KT 9999 FEW010 14/13 Q1011 NOSIG

VFR

14°C / 13°C

[Viac]
Vietor variable 2kt
Viditeľnosť >10km
Počasie -
Oblaky Few Clouds 9000ft
Tlak 1011
Zmeniť -
Nespracované LOWI 230320Z AUTO VRB02KT 9999 FEW090 14/13 Q1011

VFR

14°C / 13°C

[Viac]
Vietor variable 2kt
Viditeľnosť >10km
Počasie -
Oblaky Few Clouds 12000ft
Tlak 1011
Zmeniť -
Nespracované LOWI 230250Z AUTO VRB02KT 9999 FEW120 14/13 Q1011

VFR

14°C / 13°C

[Viac]
Vietor 190º variable 160º to 240º 3kt
Viditeľnosť >10km
Počasie -
Oblaky Scattered Clouds 12000ft
Tlak 1012
Zmeniť -
Nespracované LOWI 230220Z AUTO 19003KT 160V240 9999 SCT120 14/13 Q1012

VFR

15°C / 14°C

[Viac]
Vietor 290º 3kt
Viditeľnosť >10km
Počasie -
Oblaky Few Clouds 9000ft
Broken Clouds 12000ft
Tlak 1012
Zmeniť -
Nespracované LOWI 230150Z AUTO 29003KT 9999 FEW090 BKN120 15/14 Q1012

VFR

15°C / 14°C

[Viac]
Vietor 260º 3kt
Viditeľnosť >10km
Počasie -
Oblaky Scattered Clouds 10000ft
Broken Clouds 12000ft
Tlak 1012
Zmeniť -
Nespracované LOWI 230120Z AUTO 26003KT 9999 SCT100 BKN120 15/14 Q1012

VFR

14°C / 13°C

[Viac]
Vietor 200º variable 170º to 230º 3kt
Viditeľnosť >10km
Počasie -
Oblaky Few Clouds 11000ft
Broken Clouds 12000ft
Tlak 1012
Zmeniť -
Nespracované LOWI 230050Z AUTO 20003KT 170V230 9999 FEW110 BKN120 14/13 Q1012

VFR

15°C / 14°C

[Viac]
Vietor 320º variable 290º to 350º 4kt
Viditeľnosť >10km
Počasie -
Oblaky Few Clouds 500ft
Broken Clouds 11000ft
Tlak 1012
Zmeniť -
Nespracované LOWI 230020Z AUTO 32004KT 290V350 9999 FEW005 BKN110 15/14 Q1012

VFR

14°C / 13°C

[Viac]
Vietor variable 2kt
Viditeľnosť >10km
Počasie -
Oblaky Broken Clouds 11000ft
Tlak 1013
Zmeniť -
Nespracované LOWI 222350Z AUTO VRB02KT 9999 BKN110 14/13 Q1013

VFR

15°C / 14°C

[Viac]
Vietor 250º variable 200º to 300º 3kt
Viditeľnosť >10km
Počasie -
Oblaky Clear
Tlak 1013
Zmeniť -
Nespracované LOWI 222320Z AUTO 25003KT 200V300 9999 NSC 15/14 Q1013

VFR

15°C / 14°C

[Viac]
Vietor 360º variable 260º to 030º 3kt
Viditeľnosť >10km
Počasie -
Oblaky Clear
Tlak 1013
Zmeniť -
Nespracované LOWI 222250Z AUTO 36003KT 260V030 9999 NCD 15/14 Q1013

VFR

15°C / 14°C

[Viac]
Vietor 220º variable 160º to 270º 4kt
Viditeľnosť >10km
Počasie -
Oblaky Clear
Tlak 1013
Zmeniť -
Nespracované LOWI 222220Z AUTO 22004KT 160V270 9999 NCD 15/14 Q1013

VFR

16°C / 15°C

[Viac]
Vietor 290º variable 260º to 330º 4kt
Viditeľnosť >10km
Počasie -
Oblaky Clear
Tlak 1013
Zmeniť -
Nespracované LOWI 222150Z AUTO 29004KT 260V330 9999 NSC 16/15 Q1013

VFR

17°C / 15°C

[Viac]
Vietor 280º 3kt
Viditeľnosť >10km
Počasie -
Oblaky Few Clouds 12000ft
Tlak 1014
Zmeniť -
Nespracované LOWI 222120Z AUTO 28003KT 9999 FEW120 17/15 Q1014

VFR

17°C / 14°C

[Viac]
Vietor variable 4kt
Viditeľnosť >10km
Počasie -
Oblaky Few Clouds 7000ft
Scattered Clouds 8000ft
Broken Clouds 12000ft
Tlak 1014
Zmeniť No Significant change
Nespracované LOWI 222050Z VRB04KT 9999 FEW070 SCT080 BKN120 17/14 Q1014 NOSIG

VFR

17°C / 15°C

[Viac]
Vietor variable 2kt
Viditeľnosť >10km
Počasie -
Oblaky Few Clouds 7000ft
Few Clouds 7000ft
Scattered Clouds 8000ft
Broken Clouds 12000ft
Tlak 1014
Zmeniť No Significant change
Nespracované LOWI 222020Z VRB02KT 9999 FEW070 FEW070CB SCT080 BKN120 17/15 Q1014 NOSIG

VFR

18°C / 14°C

[Viac]
Vietor variable 4kt
Viditeľnosť >10km
Počasie -
Oblaky Few Clouds 7000ft
Few Clouds 7000ft
Scattered Clouds 8000ft
Broken Clouds 12000ft
Tlak 1014
Zmeniť No Significant change
Nespracované LOWI 221950Z VRB04KT 9999 FEW070 FEW070CB SCT080 BKN120 18/14 Q1014 NOSIG

VFR

18°C / 14°C

[Viac]
Vietor 70º variable 010º to 140º 5kt
Viditeľnosť >10km
Počasie -
Oblaky Few Clouds 7000ft
Few Clouds 7000ft
Scattered Clouds 8000ft
Broken Clouds 12000ft
Tlak 1013
Zmeniť No Significant change
Nespracované LOWI 221920Z 07005KT 010V140 9999 FEW070 FEW070CB SCT080 BKN120 18/14 Q1013 NOSIG

VFR

18°C / 16°C

[Viac]
Vietor 20º variable 350º to 070º 4kt
Viditeľnosť >10km
Počasie -
Oblaky Few Clouds 7000ft
Few Clouds 7000ft
Scattered Clouds 8000ft
Broken Clouds 12000ft
Tlak 1013
Zmeniť No Significant change
Nespracované LOWI 221850Z 02004KT 350V070 9999 FEW070 FEW070CB SCT080 BKN120 18/16 Q1013 NOSIG

VFR

18°C / 17°C

[Viac]
Vietor 250º variable 110º to 280º 5kt
Viditeľnosť >10km
Počasie -
Oblaky Few Clouds 7000ft
Few Clouds 7000ft
Scattered Clouds 8000ft
Broken Clouds 12000ft
Tlak 1013
Zmeniť No Significant change
Nespracované LOWI 221820Z 25005KT 110V280 9999 FEW070 FEW070CB SCT080 BKN120 18/17 Q1013 NOSIG

Správy TAF pre lokalitu Innsbruck (LOWI)

From till


Maximum Temperature 26ºC on . Minimum Temperature 16ºC on .
From till Wind 270º 8kt. Visibility 10km or more. Few Clouds 8000ft.
Temporarly from till Wind 90º 10kt. Few Clouds 8000ft.
With 30% probability, Temporarly from till Wind variable 15kt. Gust 25kt. Thunderstorm Rain . Scattered Clouds 5000ft. Broken Clouds 6000ft.
Temporarly from till Wind 250º 15kt. Gust 25kt. Thunderstorm Rain . Scattered Clouds 2000ft. Broken Clouds 4000ft.

Nespracované: TAF LOWI 230515Z 2306/2406 27008KT 9999 FEW080 TX26/2313Z TN16/2306Z TEMPO 2307/2319 09010KT FEW080CB PROB30 TEMPO 2313/2318 VRB15G25KT TSRA SCT050CB BKN060 TEMPO 2318/2406 25015G25KT TSRA SCT020 BKN040CB

Radar pre Innsbruck

Mrholenie
Slabý
Mierne
Ťažké
Veľmi ťažké
Krúpy

Značka polohy je umiestnená na Innsbruck. Táto animácia ukazuje zrážky pozorované radarom za poslednú hodinu a tiež 2h predpoveď. Mrholenie alebo slabé sneženie môže byť pre radar neviditeľné. Intenzita zrážok je farebne označená od svetlomodrej po oranžovú.
Copyright 2022 Deutscher Wetterdienst / meteoblue.

Aktuálne satelitné snímky a snímky zrážok pre lokalitu Innsbruck, Rakúsko

Značka polohy je umiestnená naInnsbruck. [Viac]

Satelitné snímky zhotovované v reálnom čase využívajú viditeľné svetlo počas dňa a infračervené žiarenie počas noci. Vzhľadom na to, že infračervené žiarenie zisťuje teplotné rozdiely, snímka v noci nie je tmavá. Nízke oblaky a hmlu je, žiaľ, ťažké odlíšiť od prízemných teplôt, preto môžu byť počas noci takmer neviditeľné. Meteosat satelitné snímky pre Európu sú aktualizované v reálnom čase každých 5 minút. Snímky z GOES-16/GOES-17 (Severná a Južná Amerika) a Himawari (Ázia) sú aktualizované každých 10 minút.

Zrážky sú odhadované na základe radara a satelitov. V noci sú odhady zrážok zo satelitov menej presné než počas dňa. Oranžové krížiky označujú miesta, kde bol zaznamenaný blesk (za Európa).

Copyright 2022 EUMETSAT / meteoblue. Údaje o bleskoch poskytuje nowcast.

Späť nahor